Nightmute, Alaska
Current Conditions -  °F | °C
As of 10:21 AM on Friday 24 Oct 2014 (Local Time) from PAOO Reporting Station
Moderate Fog Moderate Fog  
Wind Chill: 27°   Ceiling: 3200
Heat Index: 27°   Visibility: 0.5mi
Dew Point: 27°   Wind: 0mph
Humidity: 100%   Direction: NA
Pressure: 29.93"   Gusts: NA
Location:  60.48°N, 164.73°W
Report Text: PAOO 241821Z AUTO 00000KT 1/2SM FZFG BKN032 M03/M03 A2993 RMK AO2 TSNO $
Loading
Personal Weather Stations






























Interactive Weather Map
Tropical Storm Tracking
New forecast layout! Learn more

10-Day Weather Forecast

Advertisements
Track Severe Weather on mobile